Terminal Aerodrome Forecast
Issued by NWS

Home | Current Version | Previous Version | Text Only | Print | Product List | Glossary On
Versions: 1 2 3 4 5 6 7 8 9 10 11 12 13 14 15 16 17 18 19 20 21 22 23 24 25 26
000
FTUS46 KMTR 202320
TAFMRY
TAF
KMRY 202320Z 2100/2124 27011G18KT P6SM FEW040 FEW250
     FM210400 23006KT P6SM SKC
     FM210600 VRB03KT P6SM FEW008
      TEMPO 2106/2110 SCT008
     FM212000 27008KT P6SM FEW010=

USA.gov is the U.S. government's official web portal to all federal, state and local government web resources and services.